Time;durP1;ratioP1;P1;durP2;ratioP2;P2;SDS_P1;SDS_P2;PMS_P1;PMS_P2;Temp;Humidity;BMP_temperature;BMP_pressure;BME280_temperature;BME280_humidity;BME280_pressure;Samples;Min_cycle;Max_cycle;Signal;HPM_P1;HPM_P2
2023/03/12 00:00:21;;;;;;;13.38;5.60;;;;;;;;;;4996042;28;20038;-67
2023/03/12 00:02:48;;;;;;;8.23;5.10;;;;;;;;;;5010945;28;20057;-67
2023/03/12 00:05:16;;;;;;;9.13;5.53;;;;;;;;;;4978263;28;20050;-67
2023/03/12 00:07:43;;;;;;;8.00;5.22;;;;;;;;;;4995958;28;20450;-67
2023/03/12 00:10:11;;;;;;;12.25;5.10;;;;;;;;;;4995662;28;20377;-67
2023/03/12 00:12:38;;;;;;;7.55;5.78;;;;;;;;;;4995790;28;20559;-67
2023/03/12 00:15:06;;;;;;;13.70;5.95;;;;;;;;;;4995611;28;20439;-67
2023/03/12 00:17:34;;;;;;;10.70;5.13;;;;;;;;;;4995375;28;20057;-67
2023/03/12 00:20:02;;;;;;;8.05;5.30;;;;;;;;;;5010714;28;20233;-67
2023/03/12 00:22:29;;;;;;;14.80;7.18;;;;;;;;;;4995609;28;20042;-66
2023/03/12 00:24:57;;;;;;;16.95;5.90;;;;;;;;;;4995838;28;20113;-67
2023/03/12 00:27:25;;;;;;;9.50;5.70;;;;;;;;;;4995649;28;20054;-67
2023/03/12 00:29:53;;;;;;;10.20;5.28;;;;;;;;;;4977999;28;20441;-67
2023/03/12 00:32:20;;;;;;;12.32;5.38;;;;;;;;;;4977740;28;20050;-67
2023/03/12 00:34:52;;;;;;;8.10;5.07;;;;;;;;;;4994810;28;20046;-67
2023/03/12 00:37:20;;;;;;;9.63;5.70;;;;;;;;;;4995321;28;20065;-69
2023/03/12 00:39:48;;;;;;;13.95;5.43;;;;;;;;;;4993668;28;20051;-67
2023/03/12 00:42:15;;;;;;;12.93;6.00;;;;;;;;;;4993852;28;20077;-67
2023/03/12 00:44:43;;;;;;;11.85;5.45;;;;;;;;;;5010096;28;20039;-67
2023/03/12 00:47:11;;;;;;;8.60;5.50;;;;;;;;;;4995037;28;20129;-66
2023/03/12 00:49:39;;;;;;;8.27;6.30;;;;;;;;;;4994848;28;20050;-67
2023/03/12 00:52:06;;;;;;;8.15;5.18;;;;;;;;;;4977450;28;20141;-67
2023/03/12 00:54:34;;;;;;;8.68;5.55;;;;;;;;;;4977487;28;20042;-67
2023/03/12 00:57:01;;;;;;;9.70;5.40;;;;;;;;;;4977122;28;20161;-67
2023/03/12 00:59:29;;;;;;;10.02;5.28;;;;;;;;;;4977444;28;20125;-66
2023/03/12 01:01:56;;;;;;;9.13;5.28;;;;;;;;;;4973710;28;20047;-67
2023/03/12 01:04:24;;;;;;;11.73;5.78;;;;;;;;;;4976260;28;20134;-67
2023/03/12 01:06:52;;;;;;;8.90;5.28;;;;;;;;;;4973945;28;20051;-67
2023/03/12 01:09:19;;;;;;;11.75;5.63;;;;;;;;;;4992907;28;20047;-67
2023/03/12 01:11:47;;;;;;;11.30;5.38;;;;;;;;;;4958078;28;20496;-66
2023/03/12 01:14:14;;;;;;;11.90;5.30;;;;;;;;;;4974843;28;20446;-66
2023/03/12 01:16:41;;;;;;;11.25;5.32;;;;;;;;;;4994415;28;20042;-67
2023/03/12 01:19:11;;;;;;;7.18;5.35;;;;;;;;;;4976116;28;20068;-67
2023/03/12 01:21:39;;;;;;;8.02;5.60;;;;;;;;;;4976943;28;20050;-66
2023/03/12 01:24:06;;;;;;;8.80;5.25;;;;;;;;;;4994335;28;20035;-66
2023/03/12 01:26:34;;;;;;;10.13;5.20;;;;;;;;;;4994351;28;20045;-66
2023/03/12 01:29:01;;;;;;;9.48;5.15;;;;;;;;;;4976849;28;20038;-66
2023/03/12 01:31:29;;;;;;;15.75;6.53;;;;;;;;;;4977272;28;20072;-66
2023/03/12 01:33:56;;;;;;;11.45;5.47;;;;;;;;;;4994631;28;20153;-66
2023/03/12 01:36:26;;;;;;;13.75;5.80;;;;;;;;;;4976629;28;20046;-66
2023/03/12 01:38:54;;;;;;;9.23;5.25;;;;;;;;;;4976680;28;20073;-66
2023/03/12 01:41:22;;;;;;;10.57;5.55;;;;;;;;;;4976541;28;20096;-66
2023/03/12 01:43:50;;;;;;;9.48;4.97;;;;;;;;;;4976552;28;20049;-66
2023/03/12 01:46:20;;;;;;;11.90;5.38;;;;;;;;;;4976543;28;20046;-66
2023/03/12 01:48:50;;;;;;;6.93;5.10;;;;;;;;;;4976403;28;20046;-66
2023/03/12 01:51:18;;;;;;;11.10;4.60;;;;;;;;;;4976390;28;20043;-68
2023/03/12 01:53:49;;;;;;;8.75;5.10;;;;;;;;;;4960290;28;20054;-68
2023/03/12 01:56:18;;;;;;;8.32;5.18;;;;;;;;;;4976505;28;20396;-68
2023/03/12 01:58:51;;;;;;;9.88;4.95;;;;;;;;;;4993571;28;20097;-66
2023/03/12 02:01:19;;;;;;;8.10;5.10;;;;;;;;;;4976165;28;20073;-66
2023/03/12 02:03:48;;;;;;;8.43;4.80;;;;;;;;;;4976041;28;20046;-66
2023/03/12 02:06:18;;;;;;;8.48;4.97;;;;;;;;;;4975894;28;20120;-66
2023/03/12 02:08:47;;;;;;;6.53;4.88;;;;;;;;;;4976120;28;20042;-67
2023/03/12 02:11:14;;;;;;;11.20;5.10;;;;;;;;;;4976212;28;20408;-66
2023/03/12 02:13:43;;;;;;;7.63;4.85;;;;;;;;;;4975590;28;20038;-66
2023/03/12 02:16:11;;;;;;;9.80;4.70;;;;;;;;;;4976006;28;20093;-66
2023/03/12 02:18:38;;;;;;;10.25;5.10;;;;;;;;;;4975898;28;20038;-66
2023/03/12 02:21:18;;;;;;;11.25;4.82;;;;;;;;;;4975360;28;20089;-66
2023/03/12 02:23:52;;;;;;;8.95;4.78;;;;;;;;;;4975974;28;20054;-66
2023/03/12 02:26:20;;;;;;;8.43;4.40;;;;;;;;;;4975877;28;20054;-66
2023/03/12 02:28:49;;;;;;;11.00;4.82;;;;;;;;;;4975841;28;20061;-66
2023/03/12 02:31:19;;;;;;;10.32;5.20;;;;;;;;;;4975741;28;20390;-67
2023/03/12 02:33:46;;;;;;;7.50;4.57;;;;;;;;;;4975661;28;20050;-67
2023/03/12 02:36:14;;;;;;;7.45;4.53;;;;;;;;;;4992968;28;20693;-67
2023/03/12 02:38:49;;;;;;;7.70;5.07;;;;;;;;;;4992972;28;20049;-67
2023/03/12 02:41:29;;;;;;;7.25;4.57;;;;;;;;;;4975596;28;20054;-67
2023/03/12 02:44:06;;;;;;;7.60;4.78;;;;;;;;;;4975681;28;20050;-67
2023/03/12 02:46:37;;;;;;;6.85;4.28;;;;;;;;;;4975646;28;20050;-67
2023/03/12 02:49:05;;;;;;;8.98;4.50;;;;;;;;;;4975601;28;20117;-67
2023/03/12 02:51:32;;;;;;;11.75;4.45;;;;;;;;;;4975670;28;20043;-67
2023/03/12 02:54:00;;;;;;;7.22;4.38;;;;;;;;;;4975515;28;20416;-67
2023/03/12 02:56:28;;;;;;;6.20;4.28;;;;;;;;;;4975556;28;20046;-67
2023/03/12 02:58:56;;;;;;;6.28;4.43;;;;;;;;;;4975466;28;20520;-67
2023/03/12 03:01:24;;;;;;;6.70;4.13;;;;;;;;;;4975435;28;20049;-67
2023/03/12 03:03:53;;;;;;;9.40;3.90;;;;;;;;;;4975554;28;20050;-67
2023/03/12 03:06:22;;;;;;;7.38;4.07;;;;;;;;;;4978987;28;20066;-67
2023/03/12 03:08:49;;;;;;;8.00;3.95;;;;;;;;;;4979489;28;20373;-67
2023/03/12 03:11:17;;;;;;;5.78;3.47;;;;;;;;;;4979410;28;20042;-67
2023/03/12 03:13:45;;;;;;;7.57;3.75;;;;;;;;;;4979162;28;20074;-67
2023/03/12 03:16:12;;;;;;;5.32;3.60;;;;;;;;;;4979304;28;20043;-67
2023/03/12 03:18:40;;;;;;;6.32;3.78;;;;;;;;;;4979115;28;20050;-67
2023/03/12 03:21:08;;;;;;;8.57;3.50;;;;;;;;;;4978868;28;20055;-68
2023/03/12 03:23:36;;;;;;;7.30;3.70;;;;;;;;;;4979160;28;20046;-68
2023/03/12 03:26:04;;;;;;;7.03;3.80;;;;;;;;;;4978952;28;20034;-67
2023/03/12 03:28:31;;;;;;;8.70;4.53;;;;;;;;;;4979074;28;20483;-68
2023/03/12 03:31:02;;;;;;;5.80;3.55;;;;;;;;;;4978928;28;20046;-67
2023/03/12 03:33:35;;;;;;;8.38;3.78;;;;;;;;;;4978922;28;20074;-67
2023/03/12 03:36:05;;;;;;;8.18;3.42;;;;;;;;;;4978962;28;20046;-67
2023/03/12 03:38:36;;;;;;;5.32;3.42;;;;;;;;;;4978904;28;20053;-67
2023/03/12 03:41:04;;;;;;;9.98;3.50;;;;;;;;;;4978744;28;20043;-67
2023/03/12 03:43:36;;;;;;;5.07;3.05;;;;;;;;;;4978852;28;20038;-67
2023/03/12 03:46:05;;;;;;;9.00;3.03;;;;;;;;;;4978494;28;20389;-67
2023/03/12 03:48:37;;;;;;;5.88;3.08;;;;;;;;;;4978750;28;20042;-67
2023/03/12 03:51:07;;;;;;;9.05;3.97;;;;;;;;;;4978641;28;20054;-67
2023/03/12 03:53:36;;;;;;;6.60;3.08;;;;;;;;;;4978550;28;20054;-67
2023/03/12 03:56:08;;;;;;;6.88;2.88;;;;;;;;;;4978578;28;20035;-67
2023/03/12 03:58:38;;;;;;;4.90;2.80;;;;;;;;;;4978445;28;20512;-67
2023/03/12 04:01:06;;;;;;;8.77;3.17;;;;;;;;;;4978404;28;20125;-67
2023/03/12 04:03:34;;;;;;;5.10;2.90;;;;;;;;;;4978345;28;20504;-67
2023/03/12 04:06:04;;;;;;;8.15;3.30;;;;;;;;;;4978362;28;20073;-67
2023/03/12 04:08:34;;;;;;;5.03;2.65;;;;;;;;;;4978289;28;20129;-68
2023/03/12 04:11:07;;;;;;;4.55;2.90;;;;;;;;;;4978433;28;20050;-68
2023/03/12 04:13:35;;;;;;;5.20;3.30;;;;;;;;;;4978059;28;21132;-68
2023/03/12 04:16:03;;;;;;;4.38;2.75;;;;;;;;;;4978007;28;20104;-68
2023/03/12 04:18:31;;;;;;;4.90;3.15;;;;;;;;;;4978311;28;20133;-66
2023/03/12 04:21:00;;;;;;;5.50;2.90;;;;;;;;;;4995212;28;20062;-67
2023/03/12 04:23:28;;;;;;;3.95;2.83;;;;;;;;;;4977887;28;20052;-66
2023/03/12 04:25:55;;;;;;;12.77;2.90;;;;;;;;;;4977961;28;20050;-67
2023/03/12 04:28:23;;;;;;;5.15;3.20;;;;;;;;;;4995157;28;20039;-66
2023/03/12 04:31:00;;;;;;;6.25;3.50;;;;;;;;;;4978064;28;20058;-66
2023/03/12 04:33:39;;;;;;;4.97;2.70;;;;;;;;;;4977680;28;20056;-67
2023/03/12 04:36:08;;;;;;;6.72;3.03;;;;;;;;;;4977843;28;20047;-66
2023/03/12 04:38:46;;;;;;;7.45;3.10;;;;;;;;;;4977910;28;20046;-67
2023/03/12 04:41:16;;;;;;;6.57;2.72;;;;;;;;;;4977760;28;20042;-67
2023/03/12 04:43:59;;;;;;;5.18;2.70;;;;;;;;;;4977382;28;20066;-67
2023/03/12 04:46:27;;;;;;;7.88;3.20;;;;;;;;;;4977424;28;20065;-66
2023/03/12 04:48:54;;;;;;;3.65;2.58;;;;;;;;;;4977385;28;20522;-67
2023/03/12 04:51:22;;;;;;;9.65;3.08;;;;;;;;;;4977437;28;20042;-67
2023/03/12 04:53:50;;;;;;;5.82;2.90;;;;;;;;;;4994903;28;20046;-66
2023/03/12 04:56:17;;;;;;;8.27;3.05;;;;;;;;;;4977507;28;20471;-66
2023/03/12 04:58:46;;;;;;;6.13;3.30;;;;;;;;;;4977401;28;20428;-68
2023/03/12 05:01:23;;;;;;;8.13;3.20;;;;;;;;;;4994782;28;20031;-66
2023/03/12 05:03:51;;;;;;;6.47;3.72;;;;;;;;;;4977408;28;20039;-66
2023/03/12 05:06:19;;;;;;;3.97;3.00;;;;;;;;;;4995067;28;20054;-66
2023/03/12 05:08:47;;;;;;;4.57;2.92;;;;;;;;;;4994690;28;20046;-66
2023/03/12 05:11:14;;;;;;;4.45;2.63;;;;;;;;;;4977211;28;20053;-67
2023/03/12 05:13:42;;;;;;;6.15;2.88;;;;;;;;;;4977034;28;20066;-67
2023/03/12 05:16:10;;;;;;;8.98;3.15;;;;;;;;;;4977163;28;20137;-67
2023/03/12 05:18:37;;;;;;;6.47;4.05;;;;;;;;;;4976909;28;20408;-68
2023/03/12 05:21:09;;;;;;;7.57;2.60;;;;;;;;;;4976826;28;20082;-66
2023/03/12 05:23:41;;;;;;;8.95;3.20;;;;;;;;;;4976671;28;20058;-68
2023/03/12 05:26:22;;;;;;;7.03;2.80;;;;;;;;;;4976982;28;20554;-66
2023/03/12 05:28:51;;;;;;;5.82;3.33;;;;;;;;;;4976226;28;20054;-67
2023/03/12 05:31:20;;;;;;;3.92;2.85;;;;;;;;;;4976728;28;20560;-68
2023/03/12 05:33:48;;;;;;;4.15;2.95;;;;;;;;;;4976614;28;20050;-69
2023/03/12 05:36:19;;;;;;;5.85;3.30;;;;;;;;;;4976861;28;20069;-68
2023/03/12 05:38:47;;;;;;;8.93;3.10;;;;;;;;;;4976868;28;20052;-68
2023/03/12 05:41:20;;;;;;;5.63;3.00;;;;;;;;;;4976729;28;20054;-66
2023/03/12 05:43:49;;;;;;;5.25;2.65;;;;;;;;;;4976277;28;20492;-67
2023/03/12 05:46:17;;;;;;;6.30;3.20;;;;;;;;;;4958976;28;20085;-66
2023/03/12 05:48:45;;;;;;;8.80;3.15;;;;;;;;;;4992966;28;20042;-66
2023/03/12 05:51:14;;;;;;;5.07;2.88;;;;;;;;;;4974478;28;20052;-67
2023/03/12 05:53:41;;;;;;;4.80;2.83;;;;;;;;;;4976415;28;20133;-66
2023/03/12 05:56:11;;;;;;;4.68;2.35;;;;;;;;;;4960174;28;20049;-67
2023/03/12 05:58:39;;;;;;;6.32;3.10;;;;;;;;;;4976214;28;20390;-67
2023/03/12 06:01:14;;;;;;;6.28;3.13;;;;;;;;;;4976342;28;20046;-67
2023/03/12 06:03:43;;;;;;;5.10;2.85;;;;;;;;;;4976371;28;20077;-67
2023/03/12 06:06:11;;;;;;;8.00;3.13;;;;;;;;;;4976318;28;20050;-67
2023/03/12 06:08:40;;;;;;;6.05;2.95;;;;;;;;;;5008467;28;20104;-67
2023/03/12 06:11:09;;;;;;;6.35;3.30;;;;;;;;;;4975312;28;20088;-68
2023/03/12 06:13:37;;;;;;;4.60;3.05;;;;;;;;;;4975832;28;20050;-67
2023/03/12 06:16:05;;;;;;;6.45;2.78;;;;;;;;;;4975808;28;20042;-67
2023/03/12 06:18:34;;;;;;;4.63;3.10;;;;;;;;;;4975225;28;20042;-69
2023/03/12 06:21:13;;;;;;;6.97;2.80;;;;;;;;;;4993152;28;20465;-67
2023/03/12 06:23:41;;;;;;;5.47;3.00;;;;;;;;;;4976105;28;20050;-68
2023/03/12 06:26:12;;;;;;;5.82;3.20;;;;;;;;;;4975137;28;20046;-69
2023/03/12 06:28:40;;;;;;;7.00;3.13;;;;;;;;;;4975132;28;20046;-69
2023/03/12 06:31:08;;;;;;;5.18;3.45;;;;;;;;;;4992612;28;20068;-68
2023/03/12 06:33:35;;;;;;;6.97;2.90;;;;;;;;;;4992926;28;20053;-68
2023/03/12 06:36:04;;;;;;;5.07;2.70;;;;;;;;;;4992450;28;20428;-69
2023/03/12 06:38:32;;;;;;;6.40;3.13;;;;;;;;;;4992167;28;20129;-68
2023/03/12 06:41:01;;;;;;;4.57;2.80;;;;;;;;;;4991964;28;20455;-68
2023/03/12 06:43:29;;;;;;;3.83;2.90;;;;;;;;;;4992397;28;20042;-68
2023/03/12 06:45:58;;;;;;;5.93;3.35;;;;;;;;;;4992509;28;20038;-68
2023/03/12 06:48:26;;;;;;;4.88;3.50;;;;;;;;;;4992891;28;20034;-68
2023/03/12 06:50:54;;;;;;;5.20;3.75;;;;;;;;;;4993159;28;20567;-68
2023/03/12 06:53:24;;;;;;;7.72;3.63;;;;;;;;;;4992891;28;20038;-68
2023/03/12 06:55:51;;;;;;;6.85;3.10;;;;;;;;;;4992979;28;20042;-68
2023/03/12 06:58:19;;;;;;;4.72;3.22;;;;;;;;;;4992389;28;20093;-68
2023/03/12 07:00:46;;;;;;;4.80;3.50;;;;;;;;;;5007841;28;20081;-68
2023/03/12 07:03:14;;;;;;;7.18;3.67;;;;;;;;;;4992780;28;20446;-68
2023/03/12 07:05:45;;;;;;;5.57;3.83;;;;;;;;;;4991627;28;20051;-69
2023/03/12 07:08:13;;;;;;;7.20;3.95;;;;;;;;;;4992940;28;20112;-67
2023/03/12 07:10:40;;;;;;;5.22;3.50;;;;;;;;;;4992984;28;20108;-68
2023/03/12 07:13:08;;;;;;;6.38;3.97;;;;;;;;;;4992923;28;20089;-68
2023/03/12 07:15:35;;;;;;;5.10;3.75;;;;;;;;;;4992886;28;20097;-68
2023/03/12 07:18:04;;;;;;;5.05;3.35;;;;;;;;;;4992925;28;20445;-68
2023/03/12 07:20:31;;;;;;;7.00;3.38;;;;;;;;;;4992790;28;20058;-68
2023/03/12 07:22:59;;;;;;;5.90;4.05;;;;;;;;;;4992777;28;20481;-68
2023/03/12 07:25:27;;;;;;;5.63;3.80;;;;;;;;;;4992897;28;20049;-70
2023/03/12 07:27:54;;;;;;;5.53;4.10;;;;;;;;;;4992643;28;20109;-70
2023/03/12 07:30:22;;;;;;;6.35;4.20;;;;;;;;;;4992566;28;20555;-66
2023/03/12 07:32:49;;;;;;;6.80;3.30;;;;;;;;;;4992609;28;20673;-66
2023/03/12 07:35:17;;;;;;;9.15;3.88;;;;;;;;;;4992685;28;20484;-66
2023/03/12 07:37:44;;;;;;;8.30;3.70;;;;;;;;;;4992533;28;20042;-74
2023/03/12 07:40:12;;;;;;;7.60;4.20;;;;;;;;;;4992475;28;20121;-68
2023/03/12 07:42:39;;;;;;;5.78;3.70;;;;;;;;;;4992537;28;20039;-66
2023/03/12 07:45:07;;;;;;;5.72;4.00;;;;;;;;;;4992663;28;20050;-67
2023/03/12 07:47:35;;;;;;;8.70;4.15;;;;;;;;;;4992300;28;20046;-67
2023/03/12 07:50:02;;;;;;;9.55;4.07;;;;;;;;;;4992460;28;20046;-67
2023/03/12 07:52:30;;;;;;;7.95;4.03;;;;;;;;;;4995816;28;20042;-67
2023/03/12 07:54:57;;;;;;;7.15;3.80;;;;;;;;;;4996145;28;20035;-66
2023/03/12 07:57:25;;;;;;;6.00;4.03;;;;;;;;;;4989766;28;20090;-67
2023/03/12 07:59:52;;;;;;;6.65;4.43;;;;;;;;;;4991886;28;20045;-67
2023/03/12 08:02:20;;;;;;;4.93;3.58;;;;;;;;;;4994944;28;20057;-69
2023/03/12 08:04:47;;;;;;;6.38;3.55;;;;;;;;;;4995490;28;20054;-67
2023/03/12 08:07:15;;;;;;;7.65;3.92;;;;;;;;;;4995539;28;20034;-67
2023/03/12 08:09:43;;;;;;;7.63;3.80;;;;;;;;;;4995556;28;20576;-68
2023/03/12 08:12:10;;;;;;;5.25;3.60;;;;;;;;;;4995621;28;20100;-68
2023/03/12 08:14:38;;;;;;;6.18;4.13;;;;;;;;;;4995551;28;20126;-68
2023/03/12 08:17:05;;;;;;;5.95;3.95;;;;;;;;;;4995255;28;20042;-68
2023/03/12 08:19:33;;;;;;;6.03;3.55;;;;;;;;;;4986655;28;20133;-68
2023/03/12 08:22:00;;;;;;;5.55;3.83;;;;;;;;;;4994871;28;20563;-68
2023/03/12 08:24:28;;;;;;;6.00;3.70;;;;;;;;;;4995091;28;20046;-66
2023/03/12 08:26:55;;;;;;;6.63;4.00;;;;;;;;;;4994066;28;20034;-67
2023/03/12 08:29:23;;;;;;;5.00;3.58;;;;;;;;;;4995000;28;20092;-67
2023/03/12 08:31:50;;;;;;;6.20;4.00;;;;;;;;;;4995061;28;20049;-67
2023/03/12 08:34:31;;;;;;;5.03;3.65;;;;;;;;;;4995178;28;20051;-66
2023/03/12 08:36:58;;;;;;;7.05;4.10;;;;;;;;;;4995037;28;20129;-66
2023/03/12 08:39:26;;;;;;;7.18;4.05;;;;;;;;;;4994982;28;20065;-66
2023/03/12 08:41:54;;;;;;;6.85;3.60;;;;;;;;;;4995038;28;20520;-66
2023/03/12 08:44:22;;;;;;;5.43;4.15;;;;;;;;;;4994884;28;20548;-67
2023/03/12 08:46:50;;;;;;;8.00;3.72;;;;;;;;;;4994944;28;20042;-67
2023/03/12 08:49:18;;;;;;;5.50;3.90;;;;;;;;;;4994654;28;20042;-67
2023/03/12 08:51:45;;;;;;;4.88;3.92;;;;;;;;;;4994569;28;20230;-67
2023/03/12 08:54:13;;;;;;;6.47;3.88;;;;;;;;;;4957895;28;20046;-66
2023/03/12 08:56:45;;;;;;;6.90;4.03;;;;;;;;;;4994019;28;20112;-66
2023/03/12 08:59:13;;;;;;;5.50;4.00;;;;;;;;;;4994587;28;20038;-66
2023/03/12 09:01:40;;;;;;;8.02;4.20;;;;;;;;;;4967717;28;20496;-66
2023/03/12 09:04:10;;;;;;;8.57;3.55;;;;;;;;;;4993898;28;20038;-65
2023/03/12 09:06:37;;;;;;;5.28;3.63;;;;;;;;;;4994519;28;20045;-66
2023/03/12 09:09:07;;;;;;;7.05;4.10;;;;;;;;;;4994646;28;20451;-67
2023/03/12 09:11:38;;;;;;;7.00;3.80;;;;;;;;;;4994207;28;20475;-67
2023/03/12 09:14:06;;;;;;;6.25;4.93;;;;;;;;;;4993881;28;20042;-67
2023/03/12 09:16:53;;;;;;;5.35;3.85;;;;;;;;;;4982888;28;20050;-67
2023/03/12 09:19:21;;;;;;;7.45;3.80;;;;;;;;;;4989939;28;20035;-66
2023/03/12 09:21:48;;;;;;;6.60;4.32;;;;;;;;;;4993414;28;20069;-65
2023/03/12 09:24:16;;;;;;;5.63;3.97;;;;;;;;;;4994188;28;20485;-66
2023/03/12 09:26:43;;;;;;;5.30;4.07;;;;;;;;;;4993996;28;20108;-66
2023/03/12 09:29:11;;;;;;;6.15;4.20;;;;;;;;;;4976308;28;20069;-66
2023/03/12 09:31:38;;;;;;;6.32;4.82;;;;;;;;;;4994104;28;20054;-66
2023/03/12 09:34:06;;;;;;;7.80;4.80;;;;;;;;;;4993412;28;20039;-65
2023/03/12 09:36:34;;;;;;;6.03;4.40;;;;;;;;;;4993396;28;20050;-67
2023/03/12 09:39:02;;;;;;;6.57;4.45;;;;;;;;;;4993643;28;20038;-67
2023/03/12 09:41:31;;;;;;;7.75;4.72;;;;;;;;;;4993537;28;20117;-65
2023/03/12 09:44:17;;;;;;;10.98;5.10;;;;;;;;;;4993579;28;20042;-66
2023/03/12 09:46:47;;;;;;;6.65;4.45;;;;;;;;;;4993263;28;20050;-71
2023/03/12 09:49:26;;;;;;;8.45;5.55;;;;;;;;;;4993227;28;20060;-65
2023/03/12 09:51:55;;;;;;;8.27;5.40;;;;;;;;;;4993461;28;20045;-64
2023/03/12 09:54:36;;;;;;;7.15;5.72;;;;;;;;;;4992649;28;20046;-65
2023/03/12 09:57:08;;;;;;;11.98;7.00;;;;;;;;;;4993167;28;20070;-64
2023/03/12 09:59:36;;;;;;;12.13;6.43;;;;;;;;;;4993061;28;20041;-64
2023/03/12 10:02:08;;;;;;;9.23;5.85;;;;;;;;;;4993468;28;20093;-63
2023/03/12 10:04:41;;;;;;;8.48;5.35;;;;;;;;;;4993068;28;20038;-64
2023/03/12 10:07:48;;;;;;;6.43;4.95;;;;;;;;;;4993425;28;20030;-64
2023/03/12 10:10:19;;;;;;;7.80;5.22;;;;;;;;;;4972158;28;20542;-64
2023/03/12 10:12:52;;;;;;;7.10;5.03;;;;;;;;;;4993445;28;20052;-64
2023/03/12 10:15:20;;;;;;;7.25;5.20;;;;;;;;;;4992986;28;20038;-64
2023/03/12 10:17:56;;;;;;;10.25;5.47;;;;;;;;;;4993412;28;20440;-65
2023/03/12 10:20:33;;;;;;;6.20;4.55;;;;;;;;;;4993144;28;20081;-65
2023/03/12 10:23:10;;;;;;;6.10;4.20;;;;;;;;;;4976572;28;20361;-65
2023/03/12 10:25:40;;;;;;;7.15;4.85;;;;;;;;;;4993324;28;20129;-65
2023/03/12 10:28:16;;;;;;;6.45;4.65;;;;;;;;;;4993219;28;20046;-65
2023/03/12 10:30:56;;;;;;;7.97;5.57;;;;;;;;;;4993397;28;20046;-65
2023/03/12 10:33:30;;;;;;;6.75;4.78;;;;;;;;;;4993088;28;20034;-65
2023/03/12 10:35:58;;;;;;;8.00;5.75;;;;;;;;;;4992588;28;20366;-64
2023/03/12 10:38:28;;;;;;;7.22;4.78;;;;;;;;;;4993197;28;20034;-66
2023/03/12 10:40:56;;;;;;;7.88;4.88;;;;;;;;;;4987867;28;20042;-65
2023/03/12 10:43:23;;;;;;;6.07;4.50;;;;;;;;;;4993013;28;20038;-64
2023/03/12 10:46:01;;;;;;;6.90;5.10;;;;;;;;;;4992810;28;20034;-64
2023/03/12 10:48:28;;;;;;;6.82;5.43;;;;;;;;;;4985598;28;20105;-64
2023/03/12 10:51:10;;;;;;;7.75;5.13;;;;;;;;;;4992774;28;20101;-65
2023/03/12 10:53:46;;;;;;;6.80;4.65;;;;;;;;;;4985605;28;20070;-65
2023/03/12 10:56:16;;;;;;;6.63;4.60;;;;;;;;;;4992580;28;20412;-65
2023/03/12 10:58:47;;;;;;;7.30;4.85;;;;;;;;;;4992759;28;20038;-65
2023/03/12 11:01:15;;;;;;;5.80;4.45;;;;;;;;;;4975238;28;20468;-66
2023/03/12 11:03:43;;;;;;;7.53;4.80;;;;;;;;;;4982077;28;20043;-65
2023/03/12 11:06:19;;;;;;;8.40;4.50;;;;;;;;;;4990429;28;20078;-64
2023/03/12 11:09:02;;;;;;;9.95;4.38;;;;;;;;;;4992948;28;20061;-64
2023/03/12 11:11:44;;;;;;;5.78;4.38;;;;;;;;;;4991547;28;20093;-64
2023/03/12 11:14:21;;;;;;;6.78;4.13;;;;;;;;;;4992205;28;20050;-63
2023/03/12 11:16:49;;;;;;;5.50;4.25;;;;;;;;;;4992306;28;20045;-63
2023/03/12 11:19:28;;;;;;;6.47;4.22;;;;;;;;;;4992234;28;20034;-62
2023/03/12 11:21:57;;;;;;;5.70;4.10;;;;;;;;;;4974999;28;20056;-63
2023/03/12 11:24:25;;;;;;;7.00;4.63;;;;;;;;;;4992596;28;20034;-62
2023/03/12 11:27:05;;;;;;;7.85;4.45;;;;;;;;;;4995350;28;20437;-64
2023/03/12 11:29:38;;;;;;;6.05;4.60;;;;;;;;;;4996330;28;20050;-70
2023/03/12 11:32:14;;;;;;;5.20;4.22;;;;;;;;;;4996147;28;20043;-64
2023/03/12 11:34:46;;;;;;;5.80;4.65;;;;;;;;;;4996185;28;20076;-59
2023/03/12 11:37:15;;;;;;;5.97;4.10;;;;;;;;;;4978819;28;20057;-59
2023/03/12 11:39:42;;;;;;;7.03;4.53;;;;;;;;;;4996331;28;20427;-59
2023/03/12 11:42:23;;;;;;;7.93;4.43;;;;;;;;;;4995914;28;20081;-64
2023/03/12 11:45:03;;;;;;;7.35;4.30;;;;;;;;;;4978213;28;20481;-59
2023/03/12 11:47:33;;;;;;;6.40;4.38;;;;;;;;;;4995899;28;20054;-59
2023/03/12 11:50:16;;;;;;;6.55;4.60;;;;;;;;;;4995591;28;20031;-59
2023/03/12 11:52:59;;;;;;;7.57;4.40;;;;;;;;;;4977177;28;20034;-60
2023/03/12 11:55:45;;;;;;;7.03;3.80;;;;;;;;;;4995560;28;20034;-60
2023/03/12 11:58:18;;;;;;;4.35;3.50;;;;;;;;;;4995414;28;20130;-60
2023/03/12 12:00:55;;;;;;;4.68;3.50;;;;;;;;;;4995612;28;20054;-59
2023/03/12 12:03:41;;;;;;;7.10;3.80;;;;;;;;;;4995082;28;20045;-60
2023/03/12 12:06:08;;;;;;;8.65;4.10;;;;;;;;;;4995579;28;20070;-60
2023/03/12 12:08:55;;;;;;;6.57;3.65;;;;;;;;;;4995327;28;20046;-60
2023/03/12 12:11:36;;;;;;;7.13;4.00;;;;;;;;;;4995041;28;20050;-59
2023/03/12 12:14:22;;;;;;;6.45;3.67;;;;;;;;;;4976222;28;20047;-60
2023/03/12 12:17:08;;;;;;;5.10;3.60;;;;;;;;;;4992576;28;20034;-60
2023/03/12 12:19:44;;;;;;;5.13;3.22;;;;;;;;;;4995264;28;20397;-60
2023/03/12 12:22:11;;;;;;;4.22;3.13;;;;;;;;;;4994756;28;20034;-60
2023/03/12 12:24:47;;;;;;;4.50;3.47;;;;;;;;;;4990797;28;20039;-60
2023/03/12 12:27:20;;;;;;;4.07;3.33;;;;;;;;;;4995068;28;20480;-60
2023/03/12 12:29:48;;;;;;;5.10;3.40;;;;;;;;;;4994992;28;20047;-60
2023/03/12 12:32:22;;;;;;;3.40;2.92;;;;;;;;;;4994827;28;20037;-60
2023/03/12 12:34:50;;;;;;;3.15;2.50;;;;;;;;;;4994960;28;20038;-59
2023/03/12 12:37:24;;;;;;;2.30;2.10;;;;;;;;;;4977168;28;20038;-60
2023/03/12 12:40:07;;;;;;;4.35;2.33;;;;;;;;;;4994633;28;20453;-60
2023/03/12 12:42:36;;;;;;;4.35;2.50;;;;;;;;;;4994929;28;20050;-60
2023/03/12 12:45:04;;;;;;;3.53;2.70;;;;;;;;;;4994940;28;20039;-60
2023/03/12 12:47:52;;;;;;;4.35;3.40;;;;;;;;;;4994804;28;20485;-59
2023/03/12 12:50:22;;;;;;;6.80;4.20;;;;;;;;;;4994666;28;20062;-61
2023/03/12 12:52:59;;;;;;;5.68;3.80;;;;;;;;;;4994610;28;20496;-60
2023/03/12 12:55:53;;;;;;;5.47;3.95;;;;;;;;;;4994798;28;20038;-60
2023/03/12 12:58:23;;;;;;;7.00;3.88;;;;;;;;;;4975441;28;20046;-59
2023/03/12 13:00:53;;;;;;;6.72;4.50;;;;;;;;;;4994313;28;20035;-59
2023/03/12 13:03:21;;;;;;;6.70;3.67;;;;;;;;;;4994596;28;20093;-61
2023/03/12 13:05:52;;;;;;;5.57;4.18;;;;;;;;;;4994542;28;20042;-58
2023/03/12 13:08:33;;;;;;;4.35;3.95;;;;;;;;;;4994310;28;20058;-59
2023/03/12 13:11:23;;;;;;;4.82;3.85;;;;;;;;;;4994111;28;20129;-61
2023/03/12 13:14:10;;;;;;;6.18;4.13;;;;;;;;;;4983489;28;20042;-59
2023/03/12 13:16:39;;;;;;;7.55;4.63;;;;;;;;;;4975733;28;20142;-59
2023/03/12 13:19:15;;;;;;;6.93;5.18;;;;;;;;;;4983083;28;20046;-59
2023/03/12 13:21:56;;;;;;;5.75;4.50;;;;;;;;;;4985639;28;20047;-60
2023/03/12 13:24:28;;;;;;;7.05;4.18;;;;;;;;;;4993876;28;20125;-60
2023/03/12 13:27:00;;;;;;;4.25;3.58;;;;;;;;;;4993817;28;20046;-59
2023/03/12 13:29:28;;;;;;;3.97;3.42;;;;;;;;;;4993848;28;20152;-59
2023/03/12 13:31:55;;;;;;;4.05;3.08;;;;;;;;;;4992935;28;20047;-60
2023/03/12 13:34:23;;;;;;;4.57;3.40;;;;;;;;;;4993989;28;20440;-59
2023/03/12 13:37:01;;;;;;;4.32;3.00;;;;;;;;;;4992856;28;20089;-60
2023/03/12 13:39:29;;;;;;;;;;;;;;;;;;4993955;28;20038;-60
2023/03/12 13:41:57;;;;;;;5.32;3.83;;;;;;;;;;4993438;28;19968;-60
2023/03/12 13:44:37;;;;;;;6.63;3.95;;;;;;;;;;4993573;28;20038;-59
2023/03/12 13:47:23;;;;;;;5.80;4.68;;;;;;;;;;4992682;28;20045;-59
2023/03/12 13:49:57;;;;;;;7.22;5.00;;;;;;;;;;4993055;28;20093;-59
2023/03/12 13:52:40;;;;;;;8.30;5.20;;;;;;;;;;4993862;28;20053;-59
2023/03/12 13:55:14;;;;;;;7.70;4.32;;;;;;;;;;4993416;28;20480;-59
2023/03/12 13:57:54;;;;;;;6.57;4.20;;;;;;;;;;4993229;28;20046;-59
2023/03/12 14:00:51;;;;;;;6.47;4.60;;;;;;;;;;4993820;28;20062;-59
2023/03/12 14:03:24;;;;;;;7.25;4.50;;;;;;;;;;4985465;28;20058;-58
2023/03/12 14:05:58;;;;;;;6.80;4.00;;;;;;;;;;4993657;28;20062;-59
2023/03/12 14:08:34;;;;;;;6.68;4.15;;;;;;;;;;4993759;28;20385;-58
2023/03/12 14:11:21;;;;;;;8.90;5.00;;;;;;;;;;4993557;28;20065;-58
2023/03/12 14:14:07;;;;;;;7.88;4.90;;;;;;;;;;4993561;28;20081;-60
2023/03/12 14:16:38;;;;;;;8.13;5.47;;;;;;;;;;4985612;28;20527;-60
2023/03/12 14:19:06;;;;;;;7.85;5.80;;;;;;;;;;4993635;28;20034;-60
2023/03/12 14:21:35;;;;;;;5.53;4.13;;;;;;;;;;4993282;28;20130;-60
2023/03/12 14:24:07;;;;;;;9.27;4.88;;;;;;;;;;4993512;28;20050;-59
2023/03/12 14:26:36;;;;;;;5.97;4.60;;;;;;;;;;4993127;28;20100;-59
2023/03/12 14:29:17;;;;;;;6.35;4.60;;;;;;;;;;4993601;28;20397;-58
2023/03/12 14:31:45;;;;;;;6.82;4.63;;;;;;;;;;4993332;28;20038;-60
2023/03/12 14:34:19;;;;;;;7.45;4.55;;;;;;;;;;4975852;28;20393;-59
2023/03/12 14:36:49;;;;;;;25.60;10.52;;;;;;;;;;4992122;28;20508;-61
2023/03/12 14:39:20;;;;;;;28.67;12.85;;;;;;;;;;4992689;28;20057;-60
2023/03/12 14:41:51;;;;;;;9.10;6.50;;;;;;;;;;4992533;28;20042;-60
2023/03/12 14:44:25;;;;;;;8.02;6.75;;;;;;;;;;4992480;28;20107;-60
2023/03/12 14:47:00;;;;;;;16.60;8.73;;;;;;;;;;4991352;28;20078;-59
2023/03/12 14:49:28;;;;;;;67.53;34.70;;;;;;;;;;4992235;28;20284;-59
2023/03/12 14:51:58;;;;;;;20.95;11.30;;;;;;;;;;4992434;28;20280;-60
2023/03/12 14:54:27;;;;;;;58.15;25.20;;;;;;;;;;4992732;28;20070;-59
2023/03/12 14:56:54;;;;;;;19.88;9.80;;;;;;;;;;4992412;28;20042;-60
2023/03/12 14:59:22;;;;;;;7.55;5.60;;;;;;;;;;4992517;28;20079;-60
2023/03/12 15:01:50;;;;;;;7.75;5.70;;;;;;;;;;4995485;28;20381;-61